createdAt,value
2018-08-31T00:00:51.708Z,12.13
2018-08-31T00:01:51.685Z,12.16
2018-08-31T00:02:51.670Z,12.12
2018-08-31T00:03:51.651Z,12.11
2018-08-31T00:04:51.640Z,12.15
2018-08-31T00:05:51.622Z,12.12
2018-08-31T00:06:51.599Z,12.19
2018-08-31T00:07:51.574Z,12.13
2018-08-31T00:08:51.561Z,12.16
2018-08-31T00:09:51.546Z,12.15
2018-08-31T00:10:51.520Z,12.21
2018-08-31T00:11:51.507Z,12.12
2018-08-31T00:12:51.488Z,12.16
2018-08-31T00:13:51.468Z,12.19
2018-08-31T00:14:51.446Z,12.19
2018-08-31T00:15:51.430Z,12.11
2018-08-31T00:16:51.411Z,12.13
2018-08-31T00:17:51.397Z,12.15
2018-08-31T00:18:51.382Z,12.13
2018-08-31T00:19:51.356Z,12.12
2018-08-31T00:20:51.341Z,12.19
2018-08-31T00:21:51.335Z,12.12
2018-08-31T00:22:51.303Z,12.04
2018-08-31T00:23:51.287Z,12.02
2018-08-31T00:24:51.269Z,11.97
2018-08-31T00:25:51.255Z,11.99
2018-08-31T00:26:51.229Z,11.96
2018-08-31T00:27:51.220Z,11.90
2018-08-31T00:28:51.197Z,11.86
2018-08-31T00:29:51.178Z,11.87
2018-08-31T00:30:51.178Z,11.86
2018-08-31T00:31:51.142Z,11.96
2018-08-31T00:32:51.122Z,11.93
2018-08-31T00:33:51.107Z,11.86
2018-08-31T00:34:51.087Z,11.89
2018-08-31T00:35:51.074Z,11.97
2018-08-31T00:36:51.048Z,11.83
2018-08-31T00:37:51.038Z,11.93
2018-08-31T00:38:51.020Z,11.96
2018-08-31T00:39:50.994Z,11.87
2018-08-31T00:40:50.979Z,12.01
2018-08-31T00:41:50.960Z,11.99
2018-08-31T00:42:50.956Z,12.01
2018-08-31T00:43:50.922Z,12.01
2018-08-31T00:44:50.903Z,11.97
2018-08-31T00:45:50.890Z,12.06
2018-08-31T00:46:50.871Z,12.09
2018-08-31T00:47:50.855Z,12.19
2018-08-31T00:48:50.837Z,12.19
2018-08-31T00:49:50.827Z,12.13
2018-08-31T00:50:50.807Z,12.20
2018-08-31T00:51:50.798Z,12.15
2018-08-31T00:52:50.762Z,12.16
2018-08-31T00:53:50.745Z,12.09
2018-08-31T00:54:50.726Z,12.08
2018-08-31T00:55:50.716Z,12.08
2018-08-31T00:56:50.688Z,12.05
2018-08-31T00:57:50.679Z,12.06
2018-08-31T00:58:50.669Z,11.94
2018-08-31T00:59:50.637Z,11.97
2018-08-31T01:00:50.621Z,12.06
2018-08-31T01:01:50.602Z,11.93
2018-08-31T01:02:50.599Z,11.93
2018-08-31T01:03:50.566Z,11.94
2018-08-31T01:04:50.542Z,11.97
2018-08-31T01:05:50.524Z,11.96
2018-08-31T01:06:50.504Z,11.83
2018-08-31T01:07:50.501Z,11.89
2018-08-31T01:08:50.468Z,11.93
2018-08-31T01:09:50.457Z,11.86
2018-08-31T01:10:50.446Z,11.82
2018-08-31T01:11:50.417Z,11.74
2018-08-31T01:12:50.396Z,11.62
2018-08-31T01:13:50.380Z,11.70
2018-08-31T01:14:50.363Z,11.67
2018-08-31T01:15:50.389Z,11.70
2018-08-31T01:16:50.325Z,11.65
2018-08-31T01:17:50.306Z,11.72
2018-08-31T01:18:50.293Z,11.57
2018-08-31T01:19:50.274Z,11.54
2018-08-31T01:20:50.276Z,11.56
2018-08-31T01:21:50.230Z,11.50
2018-08-31T01:22:50.219Z,11.52
2018-08-31T01:23:50.208Z,11.41
2018-08-31T01:24:50.181Z,11.38
2018-08-31T01:25:50.171Z,11.38
2018-08-31T01:26:50.142Z,11.34
2018-08-31T01:27:50.132Z,11.28
2018-08-31T01:28:50.111Z,11.27
2018-08-31T01:29:50.098Z,11.25
2018-08-31T01:30:50.069Z,11.20
2018-08-31T01:31:50.049Z,11.10
2018-08-31T01:32:50.030Z,11.13
2018-08-31T01:33:50.024Z,11.11
2018-08-31T01:34:50.008Z,11.11
2018-08-31T01:35:49.984Z,11.17
2018-08-31T01:36:49.969Z,11.13
2018-08-31T01:37:49.947Z,11.03
2018-08-31T01:38:49.922Z,11.09
2018-08-31T01:39:49.901Z,11.01
2018-08-31T01:40:49.901Z,10.94
2018-08-31T01:41:49.869Z,10.99
2018-08-31T01:42:49.853Z,11.02
2018-08-31T01:43:49.840Z,11.02
2018-08-31T01:44:49.812Z,10.95
2018-08-31T01:45:49.796Z,11.01
2018-08-31T01:46:49.786Z,10.99
2018-08-31T01:47:49.771Z,11.01
2018-08-31T01:48:49.733Z,10.98
2018-08-31T01:49:49.718Z,10.98
2018-08-31T01:50:49.739Z,10.94
2018-08-31T01:51:49.676Z,10.92
2018-08-31T01:52:49.744Z,10.95
2018-08-31T01:53:49.640Z,10.83
2018-08-31T01:54:49.628Z,10.83
2018-08-31T01:55:49.609Z,10.86
2018-08-31T01:56:49.590Z,10.80
2018-08-31T01:57:49.577Z,10.86
2018-08-31T01:58:49.551Z,10.78
2018-08-31T01:59:49.567Z,10.83
2018-08-31T02:00:49.516Z,10.77
2018-08-31T02:01:49.488Z,10.81
2018-08-31T02:02:49.478Z,10.78
2018-08-31T02:03:49.456Z,10.78
2018-08-31T02:04:49.436Z,10.80
2018-08-31T02:05:49.433Z,10.74
2018-08-31T02:06:49.402Z,10.81
2018-08-31T02:07:49.379Z,10.80
2018-08-31T02:08:49.359Z,10.78
2018-08-31T02:09:49.347Z,10.81
2018-08-31T02:10:49.334Z,10.81
2018-08-31T02:11:49.315Z,10.76
2018-08-31T02:12:49.290Z,10.76
2018-08-31T02:13:49.264Z,10.78
2018-08-31T02:14:49.260Z,10.81
2018-08-31T02:15:49.231Z,10.76
2018-08-31T02:16:49.212Z,10.77
2018-08-31T02:17:49.196Z,10.71
2018-08-31T02:18:49.183Z,10.73
2018-08-31T02:19:49.155Z,10.63
2018-08-31T02:20:49.133Z,10.65
2018-08-31T02:21:49.118Z,10.68
2018-08-31T02:22:49.102Z,10.68
2018-08-31T02:23:49.076Z,10.63
2018-08-31T02:24:49.060Z,10.63
2018-08-31T02:25:49.063Z,10.65
2018-08-31T02:26:49.031Z,10.66
2018-08-31T02:27:49.007Z,10.63
2018-08-31T02:28:48.983Z,10.56
2018-08-31T02:29:48.961Z,10.52
2018-08-31T02:30:48.945Z,10.53
2018-08-31T02:31:48.923Z,10.60
2018-08-31T02:32:48.907Z,10.53
2018-08-31T02:33:48.885Z,10.52
2018-08-31T02:34:48.878Z,10.55
2018-08-31T02:35:48.850Z,10.52
2018-08-31T02:36:48.837Z,10.55
2018-08-31T02:37:48.811Z,10.46
2018-08-31T02:38:48.815Z,10.55
2018-08-31T02:39:48.792Z,10.53
2018-08-31T02:40:48.754Z,10.47
2018-08-31T02:41:48.739Z,10.44
2018-08-31T02:42:48.723Z,10.47
2018-08-31T02:43:48.711Z,10.53
2018-08-31T02:44:48.679Z,10.43
2018-08-31T02:45:48.663Z,10.44
2018-08-31T02:46:48.663Z,10.40
2018-08-31T02:47:48.621Z,10.39
2018-08-31T02:48:48.602Z,10.33
2018-08-31T02:49:48.580Z,10.32
2018-08-31T02:50:48.564Z,10.33
2018-08-31T02:51:48.544Z,10.36
2018-08-31T02:52:48.527Z,10.33
2018-08-31T02:53:48.510Z,10.36
2018-08-31T02:54:48.482Z,10.34
2018-08-31T02:55:48.466Z,10.32
2018-08-31T02:56:48.456Z,10.33
2018-08-31T02:57:48.436Z,10.32
2018-08-31T02:58:48.415Z,10.32
2018-08-31T02:59:48.399Z,10.33
2018-08-31T03:00:48.373Z,10.42
2018-08-31T03:01:48.347Z,10.37
2018-08-31T03:02:48.328Z,10.42
2018-08-31T03:03:48.328Z,10.42
2018-08-31T03:04:48.293Z,10.42
2018-08-31T03:05:48.273Z,10.44
2018-08-31T03:06:48.254Z,10.34
2018-08-31T03:07:48.242Z,10.39
2018-08-31T03:08:48.228Z,10.36
2018-08-31T03:09:48.196Z,10.30
2018-08-31T03:10:48.190Z,10.28
2018-08-31T03:11:48.158Z,10.25
2018-08-31T03:12:48.139Z,10.28
2018-08-31T03:13:48.128Z,10.26
2018-08-31T03:14:48.105Z,10.25
2018-08-31T03:15:48.086Z,10.32
2018-08-31T03:16:48.083Z,10.33
2018-08-31T03:17:48.045Z,10.26
2018-08-31T03:18:48.025Z,10.36
2018-08-31T03:19:48.019Z,10.34
2018-08-31T03:20:47.990Z,10.37
2018-08-31T03:21:47.977Z,10.37
2018-08-31T03:22:47.942Z,10.39
2018-08-31T03:23:47.925Z,10.37
2018-08-31T03:24:47.906Z,10.43
2018-08-31T03:25:47.904Z,10.37
2018-08-31T03:26:47.871Z,10.36
2018-08-31T03:27:47.858Z,10.37
2018-08-31T03:28:47.829Z,10.33
2018-08-31T03:29:47.830Z,10.34
2018-08-31T03:30:47.795Z,10.36
2018-08-31T03:31:47.773Z,10.40
2018-08-31T03:32:47.755Z,10.28
2018-08-31T03:33:47.736Z,10.39
2018-08-31T03:34:47.717Z,10.39
2018-08-31T03:35:47.696Z,10.34
2018-08-31T03:36:47.714Z,10.40
2018-08-31T03:37:47.657Z,10.34
2018-08-31T03:38:47.647Z,10.37
2018-08-31T03:39:47.621Z,10.40
2018-08-31T03:40:47.602Z,10.36
2018-08-31T03:41:47.583Z,10.34
2018-08-31T03:42:47.560Z,10.39
2018-08-31T03:43:47.558Z,10.40
2018-08-31T03:44:47.525Z,10.36
2018-08-31T03:45:47.505Z,10.40
2018-08-31T03:46:47.489Z,10.37
2018-08-31T03:47:47.471Z,10.37
2018-08-31T03:48:47.454Z,10.37
2018-08-31T03:49:47.419Z,10.39
2018-08-31T03:50:47.425Z,10.36
2018-08-31T03:51:47.393Z,10.39
2018-08-31T03:52:47.374Z,10.39
2018-08-31T03:53:47.352Z,10.34
2018-08-31T03:54:47.330Z,10.36
2018-08-31T03:55:47.343Z,10.33
2018-08-31T03:56:47.304Z,10.42
2018-08-31T03:57:47.282Z,10.37
2018-08-31T03:58:47.257Z,10.36
2018-08-31T03:59:47.231Z,10.32
2018-08-31T04:00:47.210Z,10.36
2018-08-31T04:01:47.200Z,10.21
2018-08-31T04:02:47.177Z,10.36
2018-08-31T04:03:47.183Z,10.22
2018-08-31T04:04:47.161Z,10.25
2018-08-31T04:05:47.136Z,10.32
2018-08-31T04:06:47.107Z,10.25
2018-08-31T04:07:47.085Z,10.24
2018-08-31T04:08:47.065Z,10.25
2018-08-31T04:09:47.046Z,10.32
2018-08-31T04:10:47.021Z,10.25
2018-08-31T04:11:47.005Z,10.24
2018-08-31T04:12:46.979Z,10.28
2018-08-31T04:13:46.963Z,10.15
2018-08-31T04:14:46.954Z,10.19
2018-08-31T04:15:46.934Z,10.22
2018-08-31T04:16:46.912Z,10.28
2018-08-31T04:17:46.886Z,10.18
2018-08-31T04:18:46.870Z,10.25
2018-08-31T04:19:46.848Z,10.25
2018-08-31T04:20:46.832Z,10.14
2018-08-31T04:21:46.821Z,10.18
2018-08-31T04:22:46.784Z,10.24
2018-08-31T04:23:46.778Z,10.25
2018-08-31T04:24:46.761Z,10.21
2018-08-31T04:25:46.727Z,10.25
2018-08-31T04:26:46.720Z,10.17
2018-08-31T04:27:46.721Z,10.21
2018-08-31T04:28:46.674Z,10.17
2018-08-31T04:29:46.653Z,10.19
2018-08-31T04:30:46.635Z,10.22
2018-08-31T04:31:46.612Z,10.17
2018-08-31T04:32:46.594Z,10.21
2018-08-31T04:33:46.577Z,10.25
2018-08-31T04:34:46.557Z,10.26
2018-08-31T04:35:46.537Z,10.21
2018-08-31T04:36:46.515Z,10.24
2018-08-31T04:37:46.502Z,10.21
2018-08-31T04:38:46.475Z,10.21
2018-08-31T04:39:46.460Z,10.25
2018-08-31T04:40:46.450Z,10.18
2018-08-31T04:41:46.418Z,10.21
2018-08-31T04:42:46.408Z,10.24
2018-08-31T04:43:46.382Z,10.24
2018-08-31T04:44:46.362Z,10.14
2018-08-31T04:45:46.344Z,10.24
2018-08-31T04:46:46.324Z,10.30
2018-08-31T04:47:46.305Z,10.24
2018-08-31T04:48:46.299Z,10.25
2018-08-31T04:49:46.267Z,10.24
2018-08-31T04:50:46.251Z,10.21
2018-08-31T04:51:46.237Z,10.22
2018-08-31T04:52:46.212Z,10.26
2018-08-31T04:53:46.193Z,10.33
2018-08-31T04:54:46.170Z,10.32
2018-08-31T04:55:46.171Z,10.33
2018-08-31T04:56:46.146Z,10.34
2018-08-31T04:57:46.107Z,10.26
2018-08-31T04:58:46.091Z,10.40
2018-08-31T04:59:46.076Z,10.40
2018-08-31T05:00:46.076Z,10.44
2018-08-31T05:01:46.030Z,10.36
2018-08-31T05:02:46.026Z,10.47
2018-08-31T05:03:45.992Z,10.53
2018-08-31T05:04:45.992Z,10.51
2018-08-31T05:05:45.958Z,10.56
2018-08-31T05:06:45.937Z,10.51
2018-08-31T05:07:45.921Z,10.56
2018-08-31T05:08:45.902Z,10.58
2018-08-31T05:09:45.880Z,10.63
2018-08-31T05:10:45.857Z,10.65
2018-08-31T05:11:45.842Z,10.70
2018-08-31T05:12:45.829Z,10.63
2018-08-31T05:13:45.804Z,10.71
2018-08-31T05:14:45.787Z,10.73
2018-08-31T05:15:45.774Z,10.78
2018-08-31T05:16:45.768Z,10.76
2018-08-31T05:17:45.739Z,10.77
2018-08-31T05:18:45.711Z,10.81
2018-08-31T05:19:45.699Z,10.83
2018-08-31T05:20:45.676Z,10.84
2018-08-31T05:21:45.664Z,10.86
2018-08-31T05:22:45.759Z,10.84
2018-08-31T05:23:45.612Z,10.92
2018-08-31T05:24:45.596Z,10.92
2018-08-31T05:25:45.571Z,10.89
2018-08-31T05:26:45.568Z,11.02
2018-08-31T05:27:45.538Z,10.98
2018-08-31T05:28:45.528Z,10.99
2018-08-31T05:29:45.517Z,11.03
2018-08-31T05:30:45.482Z,11.07
2018-08-31T05:31:45.484Z,11.10
2018-08-31T05:32:45.444Z,11.16
2018-08-31T05:33:45.426Z,11.27
2018-08-31T05:34:45.461Z,11.25
2018-08-31T05:35:45.398Z,11.21
2018-08-31T05:36:45.370Z,11.29
2018-08-31T05:37:45.363Z,11.29
2018-08-31T05:38:45.340Z,11.35
2018-08-31T05:39:45.312Z,11.36
2018-08-31T05:40:45.312Z,11.36
2018-08-31T05:41:45.291Z,11.39
2018-08-31T05:42:45.254Z,11.38
2018-08-31T05:43:45.251Z,11.54
2018-08-31T05:44:45.229Z,11.53
2018-08-31T05:45:45.209Z,11.56
2018-08-31T05:46:45.187Z,11.65
2018-08-31T05:47:45.175Z,11.70
2018-08-31T05:48:45.151Z,11.80
2018-08-31T05:49:45.141Z,11.82
2018-08-31T05:50:45.141Z,11.85
2018-08-31T05:51:45.106Z,11.93
2018-08-31T05:52:45.079Z,11.93
2018-08-31T05:53:45.064Z,11.99
2018-08-31T05:54:45.067Z,12.11
2018-08-31T05:55:45.020Z,12.12
2018-08-31T05:56:45.004Z,12.15
2018-08-31T05:57:44.994Z,12.23
2018-08-31T05:58:44.974Z,12.26
2018-08-31T05:59:44.956Z,12.26
2018-08-31T06:00:44.948Z,12.44
2018-08-31T06:01:44.918Z,12.44
2018-08-31T06:02:44.890Z,12.49
2018-08-31T06:03:44.880Z,12.56
2018-08-31T06:04:44.868Z,12.56
2018-08-31T06:05:44.839Z,12.57
2018-08-31T06:06:44.830Z,12.64
2018-08-31T06:07:44.814Z,12.69
2018-08-31T06:08:44.794Z,12.74
2018-08-31T06:09:44.779Z,12.82
2018-08-31T06:10:44.787Z,12.84
2018-08-31T06:11:44.767Z,12.97
2018-08-31T06:12:44.718Z,12.87
2018-08-31T06:13:44.701Z,12.82
2018-08-31T06:14:44.683Z,12.89
2018-08-31T06:15:44.666Z,12.99
2018-08-31T06:16:44.658Z,13.00
2018-08-31T06:17:44.641Z,13.07
2018-08-31T06:18:44.622Z,13.14
2018-08-31T06:19:44.624Z,13.15
2018-08-31T06:20:44.584Z,13.15
2018-08-31T06:21:44.577Z,13.22
2018-08-31T06:22:44.552Z,13.36
2018-08-31T06:23:44.545Z,13.37
2018-08-31T06:24:44.519Z,13.38
2018-08-31T06:25:44.502Z,13.47
2018-08-31T06:26:44.482Z,13.54
2018-08-31T06:27:44.478Z,13.56
2018-08-31T06:28:44.452Z,13.67
2018-08-31T06:29:44.433Z,13.69
2018-08-31T06:30:44.420Z,13.77
2018-08-31T06:31:44.401Z,13.89
2018-08-31T06:32:44.467Z,13.95
2018-08-31T06:33:44.418Z,13.92
2018-08-31T06:34:44.351Z,14.09
2018-08-31T06:35:44.341Z,14.14
2018-08-31T06:36:44.315Z,14.16
2018-08-31T06:37:44.309Z,14.34
2018-08-31T06:38:44.293Z,14.38
2018-08-31T06:39:44.277Z,14.35
2018-08-31T06:40:44.327Z,14.43
2018-08-31T06:41:44.233Z,14.43
2018-08-31T06:42:44.222Z,14.54
2018-08-31T06:43:44.210Z,14.57
2018-08-31T06:44:44.198Z,14.56
2018-08-31T06:45:44.190Z,14.65
2018-08-31T06:46:44.164Z,14.67
2018-08-31T06:47:44.150Z,14.69
2018-08-31T06:48:44.130Z,14.86
2018-08-31T06:49:44.127Z,14.74
2018-08-31T06:50:44.105Z,14.88
2018-08-31T06:51:44.089Z,14.93
2018-08-31T06:52:44.078Z,15.06
2018-08-31T06:53:44.060Z,15.12
2018-08-31T06:54:44.034Z,15.17
2018-08-31T06:55:44.021Z,15.19
2018-08-31T06:56:44.007Z,15.23
2018-08-31T06:57:43.990Z,15.24
2018-08-31T06:58:43.977Z,15.31
2018-08-31T06:59:43.964Z,15.39
2018-08-31T07:00:43.947Z,15.33
2018-08-31T07:01:43.942Z,15.45
2018-08-31T07:02:43.919Z,15.42
2018-08-31T07:03:43.957Z,15.38
2018-08-31T07:04:43.893Z,15.48
2018-08-31T07:05:43.882Z,15.42
2018-08-31T07:06:43.864Z,15.43
2018-08-31T07:07:43.848Z,15.45
2018-08-31T07:08:43.835Z,15.59
2018-08-31T07:09:43.823Z,15.52
2018-08-31T07:10:43.822Z,15.66
2018-08-31T07:11:43.791Z,15.64
2018-08-31T07:12:43.787Z,15.81
2018-08-31T07:13:43.758Z,15.84
2018-08-31T07:14:43.744Z,15.92
2018-08-31T07:15:43.738Z,16.04
2018-08-31T07:16:43.721Z,16.06
2018-08-31T07:17:43.706Z,16.07
2018-08-31T07:18:43.687Z,16.06
2018-08-31T07:19:43.682Z,16.26
2018-08-31T07:20:43.662Z,16.35
2018-08-31T07:21:43.645Z,16.31
2018-08-31T07:22:43.628Z,16.37
2018-08-31T07:23:43.616Z,16.30
2018-08-31T07:24:43.603Z,16.22
2018-08-31T07:25:43.585Z,16.35
2018-08-31T07:26:43.630Z,16.38
2018-08-31T07:27:43.558Z,16.30
2018-08-31T07:28:43.546Z,16.42
2018-08-31T07:29:43.559Z,16.45
2018-08-31T07:30:43.513Z,16.45
2018-08-31T07:31:43.501Z,16.42
2018-08-31T07:32:43.488Z,16.44
2018-08-31T07:33:43.475Z,16.55
2018-08-31T07:34:43.460Z,16.49
2018-08-31T07:35:43.487Z,16.52
2018-08-31T07:36:43.431Z,16.53
2018-08-31T07:37:43.421Z,16.62
2018-08-31T07:38:43.409Z,16.78
2018-08-31T07:39:43.396Z,16.81
2018-08-31T07:40:43.380Z,17.03
2018-08-31T07:41:43.367Z,17.13
2018-08-31T07:42:43.355Z,17.33
2018-08-31T07:43:43.338Z,17.41
2018-08-31T07:44:43.321Z,17.50
2018-08-31T07:45:43.306Z,17.71
2018-08-31T07:46:43.317Z,17.97
2018-08-31T07:47:43.375Z,17.97
2018-08-31T07:48:43.270Z,18.12
2018-08-31T07:49:43.254Z,17.85
2018-08-31T07:50:43.248Z,17.63
2018-08-31T07:51:43.229Z,17.66
2018-08-31T07:52:43.219Z,17.67
2018-08-31T07:53:43.263Z,17.54
2018-08-31T07:54:43.188Z,17.54
2018-08-31T07:55:43.181Z,17.55
2018-08-31T07:56:43.169Z,17.64
2018-08-31T07:57:43.149Z,17.66
2018-08-31T07:58:43.136Z,17.67
2018-08-31T07:59:43.129Z,17.70
2018-08-31T08:00:43.117Z,17.64
2018-08-31T08:01:43.099Z,17.76
2018-08-31T08:02:43.079Z,17.92
2018-08-31T08:03:43.098Z,18.04
2018-08-31T08:04:43.065Z,18.07
2018-08-31T08:05:43.102Z,18.06
2018-08-31T08:06:43.040Z,18.00
2018-08-31T08:07:43.026Z,17.92
2018-08-31T08:08:43.014Z,17.73
2018-08-31T08:09:42.999Z,17.69
2018-08-31T08:10:42.995Z,17.64
2018-08-31T08:11:43.002Z,17.55
2018-08-31T08:12:42.963Z,17.55
2018-08-31T08:13:42.946Z,17.57
2018-08-31T08:14:42.991Z,17.47
2018-08-31T08:15:42.927Z,17.48
2018-08-31T08:16:42.930Z,17.47
2018-08-31T08:17:42.917Z,17.50
2018-08-31T08:18:42.881Z,17.53
2018-08-31T08:19:42.956Z,17.53
2018-08-31T08:20:42.859Z,17.66
2018-08-31T08:21:42.847Z,17.62
2018-08-31T08:22:42.840Z,17.67
2018-08-31T08:23:42.821Z,17.50
2018-08-31T08:24:42.811Z,17.50
2018-08-31T08:25:42.802Z,17.64
2018-08-31T08:26:42.789Z,17.63
2018-08-31T08:27:42.775Z,17.63
2018-08-31T08:28:42.761Z,17.67
2018-08-31T08:29:42.756Z,17.66
2018-08-31T08:30:42.739Z,17.78
2018-08-31T08:31:42.722Z,17.84
2018-08-31T08:32:42.706Z,17.91
2018-08-31T08:33:42.700Z,17.91
2018-08-31T08:34:42.683Z,17.88
2018-08-31T08:35:42.671Z,17.94
2018-08-31T08:36:42.661Z,17.85
2018-08-31T08:37:42.655Z,17.94
2018-08-31T08:38:42.639Z,17.92
2018-08-31T08:39:42.636Z,18.02
2018-08-31T08:40:42.607Z,18.03
2018-08-31T08:41:42.594Z,18.03
2018-08-31T08:42:42.601Z,17.99
2018-08-31T08:43:42.579Z,18.10
2018-08-31T08:44:42.565Z,18.13
2018-08-31T08:45:42.556Z,18.10
2018-08-31T08:46:42.543Z,18.07
2018-08-31T08:47:42.527Z,18.03
2018-08-31T08:48:42.658Z,17.97
2018-08-31T08:49:42.503Z,17.99
2018-08-31T08:50:42.486Z,18.04
2018-08-31T08:51:42.480Z,18.02
2018-08-31T08:52:42.469Z,18.07
2018-08-31T08:53:42.454Z,18.17
2018-08-31T08:54:42.473Z,18.17
2018-08-31T08:55:42.425Z,18.04
2018-08-31T08:56:42.415Z,18.00
2018-08-31T08:57:42.407Z,18.03
2018-08-31T08:58:42.402Z,18.00
2018-08-31T08:59:42.396Z,18.03
2018-08-31T09:00:42.385Z,18.04
2018-08-31T09:01:42.352Z,18.12
2018-08-31T09:02:42.349Z,18.19
2018-08-31T09:03:42.343Z,18.33
2018-08-31T09:04:42.327Z,18.25
2018-08-31T09:05:42.410Z,18.18
2018-08-31T09:06:42.327Z,18.12
2018-08-31T09:07:42.285Z,18.09
2018-08-31T09:08:42.272Z,18.12
2018-08-31T09:09:42.262Z,18.02
2018-08-31T09:10:42.272Z,18.00
2018-08-31T09:11:42.277Z,18.02
2018-08-31T09:12:42.224Z,18.06
2018-08-31T09:13:42.211Z,18.09
2018-08-31T09:14:42.201Z,18.18
2018-08-31T09:15:42.186Z,18.21
2018-08-31T09:16:42.170Z,18.36
2018-08-31T09:17:42.156Z,18.50
2018-08-31T09:18:42.157Z,18.57
2018-08-31T09:19:42.139Z,18.74
2018-08-31T09:20:42.122Z,18.82
2018-08-31T09:21:42.112Z,18.83
2018-08-31T09:22:42.100Z,18.97
2018-08-31T09:23:42.087Z,18.98
2018-08-31T09:24:42.166Z,18.95
2018-08-31T09:25:42.071Z,18.97
2018-08-31T09:26:42.052Z,18.87
2018-08-31T09:27:42.040Z,18.97
2018-08-31T09:28:42.027Z,19.11
2018-08-31T09:29:42.017Z,19.11
2018-08-31T09:30:42.010Z,19.40
2018-08-31T09:31:41.994Z,19.53
2018-08-31T09:32:42.009Z,19.75
2018-08-31T09:33:41.968Z,19.88
2018-08-31T09:34:41.956Z,20.05
2018-08-31T09:35:41.955Z,20.21
2018-08-31T09:36:41.939Z,20.25
2018-08-31T09:37:41.939Z,20.38
2018-08-31T09:38:41.916Z,20.24
2018-08-31T09:39:41.910Z,20.30
2018-08-31T09:40:41.890Z,20.24
2018-08-31T09:41:41.898Z,20.05
2018-08-31T09:42:41.878Z,20.24
2018-08-31T09:43:41.874Z,20.74
2018-08-31T09:44:41.862Z,20.79
2018-08-31T09:45:41.846Z,20.98
2018-08-31T09:46:41.829Z,21.11
2018-08-31T09:47:41.827Z,21.36
2018-08-31T09:48:41.818Z,21.67
2018-08-31T09:49:41.868Z,21.75
2018-08-31T09:50:41.802Z,21.98
2018-08-31T09:51:41.792Z,22.43
2018-08-31T09:52:41.801Z,22.77
2018-08-31T09:53:41.766Z,23.32
2018-08-31T09:54:41.759Z,23.22
2018-08-31T09:55:41.756Z,23.32
2018-08-31T09:56:41.741Z,23.24
2018-08-31T09:57:41.738Z,23.07
2018-08-31T09:58:41.741Z,22.80
2018-08-31T09:59:41.712Z,22.60
2018-08-31T10:00:41.703Z,22.44
2018-08-31T10:01:41.701Z,22.19
2018-08-31T10:02:41.684Z,21.78
2018-08-31T10:03:41.674Z,21.36
2018-08-31T10:04:41.665Z,21.20
2018-08-31T10:05:41.668Z,20.96
2018-08-31T10:06:41.648Z,20.76
2018-08-31T10:07:41.639Z,20.72
2018-08-31T10:08:41.639Z,20.56
2018-08-31T10:09:41.619Z,20.56
2018-08-31T10:10:41.644Z,20.42
2018-08-31T10:11:41.613Z,20.41
2018-08-31T10:12:41.601Z,20.13
2018-08-31T10:13:41.588Z,20.03
2018-08-31T10:14:41.609Z,19.98
2018-08-31T10:15:41.568Z,20.06
2018-08-31T10:16:41.556Z,20.05
2018-08-31T10:17:41.552Z,20.23
2018-08-31T10:18:41.610Z,20.13
2018-08-31T10:19:41.529Z,20.13
2018-08-31T10:20:41.509Z,20.10
2018-08-31T10:21:41.510Z,20.12
2018-08-31T10:22:41.499Z,20.10
2018-08-31T10:23:41.494Z,20.06
2018-08-31T10:24:41.478Z,20.12
2018-08-31T10:25:41.465Z,20.13
2018-08-31T10:26:41.458Z,20.13
2018-08-31T10:27:41.475Z,20.25
2018-08-31T10:28:41.441Z,20.33
2018-08-31T10:29:41.424Z,20.39
2018-08-31T10:30:41.417Z,20.62
2018-08-31T10:31:41.409Z,20.84
2018-08-31T10:32:41.411Z,20.86
2018-08-31T10:33:41.388Z,21.08
2018-08-31T10:34:41.375Z,21.26
2018-08-31T10:35:41.372Z,21.30
2018-08-31T10:36:41.360Z,21.29
2018-08-31T10:37:41.356Z,21.59
2018-08-31T10:38:41.336Z,21.67
2018-08-31T10:39:41.333Z,22.07
2018-08-31T10:40:41.343Z,22.25
2018-08-31T10:41:41.323Z,22.23
2018-08-31T10:42:41.300Z,22.06
2018-08-31T10:43:41.305Z,21.92
2018-08-31T10:44:41.284Z,21.78
2018-08-31T10:45:41.285Z,21.57
2018-08-31T10:46:41.272Z,21.38
2018-08-31T10:47:41.268Z,21.66
2018-08-31T10:48:41.252Z,21.90
2018-08-31T10:49:41.252Z,22.25
2018-08-31T10:50:41.246Z,21.99
2018-08-31T10:51:41.230Z,22.07
2018-08-31T10:52:41.230Z,21.88
2018-08-31T10:53:41.214Z,21.61
2018-08-31T10:54:41.226Z,21.61
2018-08-31T10:55:41.207Z,21.71
2018-08-31T10:56:41.185Z,21.79
2018-08-31T10:57:41.179Z,21.57
2018-08-31T10:58:41.169Z,21.51
2018-08-31T10:59:41.176Z,21.45
2018-08-31T11:00:41.152Z,21.17
2018-08-31T11:01:41.146Z,21.20
2018-08-31T11:02:41.140Z,21.16
2018-08-31T11:03:41.212Z,21.11
2018-08-31T11:04:41.131Z,21.11
2018-08-31T11:05:41.118Z,21.17
2018-08-31T11:06:41.105Z,21.19
2018-08-31T11:07:41.094Z,21.26
2018-08-31T11:08:41.085Z,21.09
2018-08-31T11:09:41.085Z,21.20
2018-08-31T11:10:41.068Z,21.09
2018-08-31T11:11:41.134Z,21.21
2018-08-31T11:12:41.190Z,21.16
2018-08-31T11:13:41.047Z,21.16
2018-08-31T11:14:41.040Z,21.17
2018-08-31T11:15:41.027Z,21.20
2018-08-31T11:16:41.019Z,21.21
2018-08-31T11:17:41.012Z,21.17
2018-08-31T11:18:41.065Z,21.30
2018-08-31T11:19:40.992Z,21.21
2018-08-31T11:20:40.983Z,21.14
2018-08-31T11:21:40.976Z,21.17
2018-08-31T11:22:40.973Z,21.13
2018-08-31T11:23:40.961Z,21.01
2018-08-31T11:24:40.946Z,21.08
2018-08-31T11:25:40.943Z,21.11
2018-08-31T11:26:40.935Z,21.16
2018-08-31T11:27:40.964Z,21.27
2018-08-31T11:28:40.908Z,21.32
2018-08-31T11:29:40.901Z,21.54
2018-08-31T11:30:40.896Z,21.67
2018-08-31T11:31:40.882Z,21.66
2018-08-31T11:32:40.872Z,21.66
2018-08-31T11:33:40.872Z,21.67
2018-08-31T11:34:40.863Z,21.71
2018-08-31T11:35:40.847Z,21.69
2018-08-31T11:36:40.844Z,21.59
2018-08-31T11:37:40.831Z,21.57
2018-08-31T11:38:40.828Z,21.48
2018-08-31T11:39:40.812Z,21.46
2018-08-31T11:40:40.809Z,21.59
2018-08-31T11:41:40.796Z,21.50
2018-08-31T11:42:40.787Z,21.57
2018-08-31T11:43:40.777Z,21.57
2018-08-31T11:44:40.767Z,21.60
2018-08-31T11:45:40.767Z,21.81
2018-08-31T11:46:40.754Z,21.74
2018-08-31T11:47:40.748Z,21.90
2018-08-31T11:48:40.739Z,22.12
2018-08-31T11:49:40.732Z,22.10
2018-08-31T11:50:40.722Z,22.22
2018-08-31T11:51:40.717Z,22.60
2018-08-31T11:52:40.701Z,22.62
2018-08-31T11:53:40.704Z,22.60
2018-08-31T11:54:40.685Z,22.60
2018-08-31T11:55:40.681Z,22.35
2018-08-31T11:56:40.679Z,22.25
2018-08-31T11:57:40.669Z,22.20
2018-08-31T11:58:40.665Z,22.06
2018-08-31T11:59:40.656Z,22.06
2018-08-31T12:00:40.657Z,22.20
2018-08-31T12:01:40.640Z,22.27
2018-08-31T12:02:40.627Z,22.01
2018-08-31T12:03:40.624Z,21.98
2018-08-31T12:04:40.614Z,21.82
2018-08-31T12:05:40.605Z,21.81
2018-08-31T12:06:40.601Z,21.74
2018-08-31T12:07:40.627Z,21.83
2018-08-31T12:08:40.582Z,21.72
2018-08-31T12:09:40.576Z,21.75
2018-08-31T12:10:40.563Z,21.76
2018-08-31T12:11:40.563Z,21.72
2018-08-31T12:12:40.549Z,21.79
2018-08-31T12:13:40.547Z,21.72
2018-08-31T12:14:40.536Z,21.90
2018-08-31T12:15:40.531Z,22.04
2018-08-31T12:16:40.526Z,22.38
2018-08-31T12:17:40.512Z,22.93
2018-08-31T12:18:40.509Z,23.39
2018-08-31T12:19:40.493Z,23.77
2018-08-31T12:20:40.493Z,24.32
2018-08-31T12:21:40.480Z,24.64
2018-08-31T12:22:40.480Z,24.91
2018-08-31T12:23:40.471Z,24.97
2018-08-31T12:24:40.467Z,25.01
2018-08-31T12:25:40.468Z,24.67
2018-08-31T12:26:40.454Z,24.20
2018-08-31T12:27:40.451Z,24.22
2018-08-31T12:28:40.451Z,24.31
2018-08-31T12:29:40.448Z,24.34
2018-08-31T12:30:40.445Z,24.12
2018-08-31T12:31:40.445Z,23.97
2018-08-31T12:32:40.432Z,23.82
2018-08-31T12:33:40.435Z,23.71
2018-08-31T12:34:40.429Z,23.64
2018-08-31T12:35:40.429Z,23.75
2018-08-31T12:36:40.425Z,23.98
2018-08-31T12:37:40.426Z,24.41
2018-08-31T12:38:40.413Z,24.73
2018-08-31T12:39:40.406Z,25.22
2018-08-31T12:40:40.400Z,25.01
2018-08-31T12:41:40.403Z,24.38
2018-08-31T12:42:40.399Z,24.27
2018-08-31T12:43:40.439Z,24.05
2018-08-31T12:44:40.395Z,23.97
2018-08-31T12:45:40.392Z,23.85
2018-08-31T12:46:40.384Z,23.47
2018-08-31T12:47:40.384Z,23.07
2018-08-31T12:48:40.371Z,22.84
2018-08-31T12:49:40.380Z,22.57
2018-08-31T12:50:40.365Z,22.37
2018-08-31T12:51:40.371Z,22.22
2018-08-31T12:52:40.352Z,22.12